Accueil
METAR-TAF:

METAR-TAF

Aéroports :

Aéroport international de Tachkent

Tachkent, Ouzbékistan

latitude: 41-16N, longitude: 069-16E, altitude: 489 m

Observation

Le bulletin a été fait il y a 34 minutes, à 13:00 UTC
Vent 8 kt de est/nord-est
Température 10°C
Humidité 29%
Pression 1023 hPa
Visibilité 10 km ou plus
pas de nuages en-dessous de 1500 mètres et pas de cumulonimbus.

METAR: UTTT 141300Z 07008KT CAVOK 10/M07 Q1023 R08R/CLRD70 NOSIG

Heure: 18:34 (13:34 UTC)

Prévision

Le bulletin a été fait il y a 2 heures et 34 minutes, à 11:00 UTC
Prévision valable du 14 à 12 UTC au 15 à 12 UTC
Vent 10 kt de est
Visibilité: 7000 m
Temporairement
du 14 à 18 UTC au 14 à 24 UTC
Visibilité: 3000 m
fumée

TAF: UTTT 141100Z 1412/1512 08010KT 7000 NSC TEMPO 1418/1424 3000 FU

Observations et prévisions météorologiques de plus de 4000 aéroports (messages METAR et TAF).

Les stations disponibles sont représentées par des disques jaunes et rouges sur la carte.

Passer la souris dessus pour voir le nom de la station.

Cliquer dessus pour voir les observations et prévisions météorologiques.

Pour changer de carte: cliquez sur les boutons verts avec une croix noire pour zoomer, sur le bouton vert avec un tiret pour effectuer un zoom arrière, ou sur les flèches vertes pour les cartes adjacentes.


METAR-TAF: